Time;durP1;ratioP1;P1;durP2;ratioP2;P2;SDS_P1;SDS_P2;PMS_P1;PMS_P2;Temp;Humidity;BMP_temperature;BMP_pressure;BME280_temperature;BME280_humidity;BME280_pressure;Samples;Min_cycle;Max_cycle;Signal;HPM_P1;HPM_P2
2021/12/09 00:02:20;;;;;;;52.30;34.40;;;1.00;99.90;;;;;;4996868;28;20384;-72
2021/12/09 00:04:49;;;;;;;46.67;30.70;;;1.00;99.90;;;;;;4996534;28;20038;-71
2021/12/09 00:07:15;;;;;;;54.00;32.50;;;1.00;99.90;;;;;;4996283;28;20034;-71
2021/12/09 00:09:41;;;;;;;45.53;32.35;;;0.90;99.90;;;;;;4996411;28;20424;-71
2021/12/09 00:12:08;;;;;;;50.75;32.83;;;0.90;99.90;;;;;;4996008;28;20022;-71
2021/12/09 00:14:34;;;;;;;56.15;34.22;;;0.90;99.90;;;;;;4995268;28;20038;-70
2021/12/09 00:17:04;;;;;;;47.72;30.17;;;1.00;99.90;;;;;;4995846;28;20468;-71
2021/12/09 00:19:30;;;;;;;64.50;40.25;;;1.00;99.90;;;;;;4996305;28;20420;-70
2021/12/09 00:21:58;;;;;;;56.17;35.50;;;1.00;99.90;;;;;;4996178;28;20014;-71
2021/12/09 00:24:25;;;;;;;59.25;38.50;;;1.10;99.90;;;;;;4996195;28;20109;-71
2021/12/09 00:26:51;;;;;;;53.08;33.35;;;1.10;99.90;;;;;;4996104;28;20018;-71
2021/12/09 00:29:18;;;;;;;50.58;32.42;;;1.20;99.90;;;;;;4995898;28;20058;-71
2021/12/09 00:31:44;;;;;;;47.25;30.70;;;1.10;99.90;;;;;;4995722;28;20373;-71
2021/12/09 00:34:10;;;;;;;67.03;42.88;;;1.20;99.90;;;;;;4995857;28;20034;-71
2021/12/09 00:36:55;;;;;;;69.50;44.28;;;1.20;99.90;;;;;;4996105;28;20353;-71
2021/12/09 00:39:22;;;;;;;62.92;41.25;;;1.30;99.90;;;;;;4995821;28;20030;-71
2021/12/09 00:41:48;;;;;;;61.42;37.40;;;1.30;99.90;;;;;;4995734;28;20681;-70
2021/12/09 00:44:14;;;;;;;45.97;30.85;;;1.30;99.90;;;;;;4995718;28;20062;-70
2021/12/09 00:46:40;;;;;;;50.05;33.97;;;1.30;99.90;;;;;;4995800;28;20022;-71
2021/12/09 00:49:06;;;;;;;53.88;33.95;;;1.30;99.90;;;;;;4995638;28;20026;-70
2021/12/09 00:51:32;;;;;;;61.45;39.15;;;1.30;99.90;;;;;;4995473;28;20022;-70
2021/12/09 00:53:58;;;;;;;53.22;32.70;;;1.30;99.90;;;;;;4995214;28;20113;-70
2021/12/09 00:56:24;;;;;;;48.60;32.80;;;1.20;99.90;;;;;;4995595;28;20488;-70
2021/12/09 00:58:50;;;;;;;47.33;30.67;;;1.20;99.90;;;;;;4995376;28;20038;-70
2021/12/09 01:01:16;;;;;;;44.70;31.90;;;1.30;99.90;;;;;;4995528;28;20364;-70
2021/12/09 01:03:43;;;;;;;50.28;32.75;;;1.30;99.90;;;;;;4995522;28;20542;-70
2021/12/09 01:06:10;;;;;;;46.45;29.60;;;1.40;99.90;;;;;;4995264;28;20030;-70
2021/12/09 01:08:39;;;;;;;48.75;31.15;;;1.40;99.90;;;;;;4995438;28;20026;-70
2021/12/09 01:11:06;;;;;;;49.03;32.10;;;1.50;99.90;;;;;;4995253;28;20034;-70
2021/12/09 01:13:32;;;;;;;51.00;32.42;;;1.60;99.90;;;;;;4995131;28;20042;-70
2021/12/09 01:15:58;;;;;;;44.13;29.73;;;1.70;99.90;;;;;;4995299;28;20065;-71
2021/12/09 01:18:24;;;;;;;48.63;29.23;;;1.80;99.90;;;;;;4995271;28;20050;-69
2021/12/09 01:20:51;;;;;;;44.83;29.48;;;1.80;99.90;;;;;;4995116;28;20037;-70
2021/12/09 01:23:16;;;;;;;44.97;28.60;;;1.80;99.90;;;;;;4994826;28;20038;-70
2021/12/09 01:25:43;;;;;;;44.25;26.83;;;1.90;99.90;;;;;;4994813;28;20034;-71
2021/12/09 01:28:18;;;;;;;53.00;32.05;;;2.00;99.90;;;;;;4994816;28;20107;-71
2021/12/09 01:30:46;;;;;;;50.35;30.67;;;2.00;99.90;;;;;;4994974;28;20105;-70
2021/12/09 01:33:11;;;;;;;44.08;28.90;;;1.90;99.90;;;;;;4995120;28;20350;-71
2021/12/09 01:35:40;;;;;;;41.90;25.90;;;1.80;99.90;;;;;;4994713;28;20062;-71
2021/12/09 01:38:12;;;;;;;42.53;27.42;;;1.80;99.90;;;;;;5009813;28;20044;-71
2021/12/09 01:40:38;;;;;;;44.25;28.55;;;1.80;99.90;;;;;;4994866;28;20430;-71
2021/12/09 01:43:04;;;;;;;40.33;25.77;;;1.90;99.90;;;;;;4994697;28;20034;-72
2021/12/09 01:45:30;;;;;;;47.90;30.73;;;1.90;99.90;;;;;;4994650;28;20035;-71
2021/12/09 01:47:56;;;;;;;41.45;26.30;;;1.90;99.90;;;;;;4994655;28;20045;-70
2021/12/09 01:50:23;;;;;;;38.20;23.25;;;2.00;99.90;;;;;;4994687;28;20392;-69
2021/12/09 01:52:49;;;;;;;43.95;26.52;;;2.10;99.90;;;;;;4994309;28;20057;-70
2021/12/09 01:55:16;;;;;;;39.42;23.77;;;2.10;99.90;;;;;;4994265;28;20046;-70
2021/12/09 01:57:46;;;;;;;53.65;32.85;;;2.20;99.90;;;;;;4994220;28;20468;-70
2021/12/09 02:00:16;;;;;;;38.97;25.23;;;2.30;99.90;;;;;;4994354;28;20034;-69
2021/12/09 02:02:43;;;;;;;38.92;24.90;;;2.40;99.90;;;;;;4994452;28;20030;-70
2021/12/09 02:05:11;;;;;;;43.08;26.52;;;2.40;99.90;;;;;;4994366;28;20062;-70
2021/12/09 02:07:38;;;;;;;38.20;26.70;;;2.30;99.90;;;;;;4994264;28;20109;-70
2021/12/09 02:10:06;;;;;;;43.78;25.85;;;2.20;99.90;;;;;;4994374;28;20030;-70
2021/12/09 02:12:32;;;;;;;40.53;26.17;;;2.20;99.90;;;;;;4994166;28;20476;-70
2021/12/09 02:15:00;;;;;;;38.35;24.42;;;2.20;99.90;;;;;;4993878;28;20034;-70
2021/12/09 02:17:27;;;;;;;35.65;25.17;;;2.20;99.90;;;;;;4994060;28;20026;-69
2021/12/09 02:19:57;;;;;;;38.75;23.65;;;2.20;99.90;;;;;;4993749;28;20032;-70
2021/12/09 02:22:24;;;;;;;37.83;25.67;;;2.10;99.90;;;;;;4993766;28;20050;-70
2021/12/09 02:24:52;;;;;;;36.17;24.80;;;2.10;99.90;;;;;;4994192;28;20354;-70
2021/12/09 02:27:19;;;;;;;38.03;23.58;;;2.10;99.90;;;;;;4994061;28;20469;-71
2021/12/09 02:29:44;;;;;;;42.55;25.13;;;2.10;99.90;;;;;;4993895;28;20103;-70
2021/12/09 02:32:11;;;;;;;43.08;24.42;;;2.20;99.90;;;;;;4993914;28;20034;-70
2021/12/09 02:34:36;;;;;;;41.55;24.70;;;2.20;99.90;;;;;;4993838;28;20444;-70
2021/12/09 02:37:04;;;;;;;37.63;23.58;;;2.30;99.90;;;;;;4993684;28;20023;-71
2021/12/09 02:39:30;;;;;;;37.10;22.70;;;2.20;99.90;;;;;;4992924;28;20026;-71
2021/12/09 02:41:56;;;;;;;39.90;25.85;;;2.20;99.90;;;;;;4993629;28;20385;-71
2021/12/09 02:44:23;;;;;;;37.95;24.25;;;2.10;99.90;;;;;;4980743;28;20065;-69
2021/12/09 02:46:53;;;;;;;41.92;23.95;;;2.10;99.90;;;;;;4971034;28;20026;-71
2021/12/09 02:49:21;;;;;;;34.83;23.48;;;2.10;99.90;;;;;;4969540;28;20058;-69
2021/12/09 02:51:50;;;;;;;37.28;25.40;;;2.10;99.90;;;;;;4973809;28;20062;-70
2021/12/09 02:54:18;;;;;;;36.72;22.88;;;2.10;99.90;;;;;;4971941;28;20042;-70
2021/12/09 02:56:46;;;;;;;37.25;22.65;;;2.10;99.90;;;;;;4976990;28;20035;-70
2021/12/09 02:59:12;;;;;;;40.03;21.85;;;2.10;99.90;;;;;;4981603;28;20070;-70
2021/12/09 03:01:57;;;;;;;35.25;21.92;;;2.20;99.90;;;;;;4974027;28;20478;-69
2021/12/09 03:04:27;;;;;;;33.55;21.08;;;2.20;99.90;;;;;;4973704;28;20389;-69
2021/12/09 03:06:54;;;;;;;36.10;21.85;;;2.20;99.90;;;;;;4973388;28;20115;-70
2021/12/09 03:09:21;;;;;;;35.92;21.00;;;2.20;99.90;;;;;;4972708;28;20429;-70
2021/12/09 03:11:54;;;;;;;36.13;21.70;;;2.20;99.90;;;;;;4972994;28;20023;-70
2021/12/09 03:14:22;;;;;;;36.65;22.58;;;2.30;99.90;;;;;;4966470;28;20046;-69
2021/12/09 03:16:48;;;;;;;37.80;23.33;;;2.30;99.90;;;;;;4973028;28;20027;-70
2021/12/09 03:19:14;;;;;;;31.35;19.75;;;2.30;99.90;;;;;;4972159;28;20042;-69
2021/12/09 03:21:42;;;;;;;29.95;19.73;;;2.30;99.90;;;;;;4972524;28;20023;-70
2021/12/09 03:24:14;;;;;;;32.28;20.77;;;2.40;99.90;;;;;;4973735;28;20377;-70
2021/12/09 03:26:54;;;;;;;31.63;20.33;;;2.30;99.90;;;;;;4973454;28;20027;-70
2021/12/09 03:29:20;;;;;;;32.38;20.65;;;2.30;99.90;;;;;;4973335;28;20062;-68
2021/12/09 03:31:49;;;;;;;30.30;20.13;;;2.30;99.90;;;;;;4973794;28;20023;-70
2021/12/09 03:34:17;;;;;;;34.15;19.60;;;2.30;99.90;;;;;;4973651;28;20031;-69
2021/12/09 03:36:44;;;;;;;31.73;20.42;;;2.30;99.90;;;;;;4973489;28;20082;-69
2021/12/09 03:39:16;;;;;;;31.90;20.48;;;2.30;99.90;;;;;;4973459;28;20031;-69
2021/12/09 03:41:48;;;;;;;31.27;21.20;;;2.30;99.90;;;;;;4973442;28;20365;-68
2021/12/09 03:44:14;;;;;;;34.88;21.02;;;2.30;99.90;;;;;;4973571;28;20039;-69
2021/12/09 03:46:40;;;;;;;32.20;19.85;;;2.30;99.90;;;;;;4973812;28;20563;-70
2021/12/09 03:49:06;;;;;;;34.15;20.30;;;2.30;99.90;;;;;;4973845;28;20031;-69
2021/12/09 03:51:35;;;;;;;29.35;20.15;;;2.30;99.90;;;;;;4977057;28;20062;-70
2021/12/09 03:54:06;;;;;;;32.45;22.13;;;2.30;99.90;;;;;;4976901;28;20066;-70
2021/12/09 03:56:34;;;;;;;32.15;19.45;;;2.30;99.90;;;;;;4977169;28;20034;-71
2021/12/09 03:59:01;;;;;;;36.22;20.90;;;2.30;99.90;;;;;;4976601;28;20492;-70
2021/12/09 04:01:27;;;;;;;34.97;20.33;;;2.30;99.90;;;;;;4976787;28;20023;-70
2021/12/09 04:03:55;;;;;;;40.17;22.60;;;2.30;99.90;;;;;;4976896;28;20027;-70
2021/12/09 04:06:20;;;;;;;31.70;18.52;;;2.40;99.90;;;;;;4976812;28;20098;-70
2021/12/09 04:08:48;;;;;;;33.05;21.98;;;2.40;99.90;;;;;;4976964;28;20060;-71
2021/12/09 04:11:18;;;;;;;33.47;22.85;;;2.50;99.90;;;;;;4976351;28;20030;-69
2021/12/09 04:13:46;;;;;;;33.20;20.00;;;2.50;99.90;;;;;;4976493;28;20074;-70
2021/12/09 04:16:12;;;;;;;37.97;21.92;;;2.60;99.90;;;;;;4976289;28;20039;-70
2021/12/09 04:18:39;;;;;;;55.25;29.98;;;2.60;99.90;;;;;;4976252;28;20034;-69
2021/12/09 04:21:06;;;;;;;56.25;30.58;;;2.60;99.90;;;;;;4976481;28;20029;-70
2021/12/09 04:23:32;;;;;;;42.47;23.15;;;2.60;99.90;;;;;;4976304;28;20053;-70
2021/12/09 04:25:58;;;;;;;37.20;22.42;;;2.70;99.90;;;;;;4976442;28;20025;-71
2021/12/09 04:28:25;;;;;;;55.90;30.65;;;2.60;99.90;;;;;;4976488;28;20027;-70
2021/12/09 04:30:53;;;;;;;34.08;20.73;;;2.60;99.90;;;;;;4976057;28;20110;-70
2021/12/09 04:33:19;;;;;;;31.10;17.98;;;2.60;99.90;;;;;;4974774;28;20058;-70
2021/12/09 04:35:45;;;;;;;33.20;19.58;;;2.70;99.90;;;;;;4971168;28;20507;-69
2021/12/09 04:38:11;;;;;;;28.60;17.30;;;2.70;99.90;;;;;;4976082;28;20031;-71
2021/12/09 04:40:37;;;;;;;25.38;16.30;;;2.80;99.90;;;;;;4971073;28;20034;-70
2021/12/09 04:43:03;;;;;;;32.30;18.10;;;2.80;99.90;;;;;;4961549;28;20607;-71
2021/12/09 04:45:33;;;;;;;27.63;17.13;;;2.80;99.90;;;;;;4962211;28;20054;-69
2021/12/09 04:47:59;;;;;;;36.92;21.65;;;2.70;99.90;;;;;;4957127;28;20054;-70
2021/12/09 04:50:25;;;;;;;34.20;19.38;;;2.70;99.90;;;;;;4975817;28;20027;-71
2021/12/09 04:52:51;;;;;;;33.33;20.15;;;2.70;99.90;;;;;;4975623;28;20070;-70
2021/12/09 04:55:18;;;;;;;33.40;19.75;;;2.80;99.90;;;;;;4975773;28;20101;-71
2021/12/09 04:57:44;;;;;;;34.25;20.83;;;2.80;99.90;;;;;;4975675;28;20031;-71
2021/12/09 05:00:14;;;;;;;33.65;20.35;;;2.80;99.90;;;;;;4975598;28;20026;-71
2021/12/09 05:05:18;;;;;;;32.80;18.38;;;2.90;99.90;;;;;;4967393;28;20513;-70
2021/12/09 05:07:45;;;;;;;28.70;16.88;;;2.90;99.90;;;;;;4955931;28;20027;-71
2021/12/09 05:10:11;;;;;;;28.13;17.08;;;2.90;99.90;;;;;;4964776;28;20023;-70
2021/12/09 05:12:37;;;;;;;30.73;18.08;;;2.90;99.90;;;;;;4975163;28;20081;-71
2021/12/09 05:15:03;;;;;;;27.48;17.13;;;2.90;99.90;;;;;;4975124;28;20034;-71
2021/12/09 05:17:29;;;;;;;26.35;14.52;;;2.90;99.90;;;;;;4975129;28;20479;-71
2021/12/09 05:19:55;;;;;;;26.77;16.27;;;2.90;99.90;;;;;;4975140;28;20030;-71
2021/12/09 05:22:21;;;;;;;33.35;20.77;;;2.90;99.90;;;;;;4974448;28;20027;-71
2021/12/09 05:24:49;;;;;;;27.50;16.85;;;3.00;99.90;;;;;;4975380;28;20031;-70
2021/12/09 05:27:16;;;;;;;25.08;14.27;;;3.00;99.90;;;;;;4974900;28;20047;-71
2021/12/09 05:29:44;;;;;;;37.00;21.80;;;3.10;99.90;;;;;;4975304;28;20031;-70
2021/12/09 05:32:12;;;;;;;31.00;17.73;;;3.20;99.90;;;;;;4975356;28;20058;-71
2021/12/09 05:34:45;;;;;;;41.15;24.30;;;3.30;99.90;;;;;;4973323;28;20082;-70
2021/12/09 05:37:13;;;;;;;;;;;3.30;99.90;;;;;;4956467;29;20114;-71
2021/12/09 05:39:39;;;;;;;36.90;24.38;;;3.40;99.90;;;;;;4956966;28;19910;-71
2021/12/09 05:42:06;;;;;;;37.00;20.92;;;3.50;99.90;;;;;;4962762;28;20031;-71
2021/12/09 05:44:33;;;;;;;25.13;14.18;;;3.50;99.90;;;;;;4965756;28;20030;-70
2021/12/09 05:47:00;;;;;;;25.45;15.18;;;3.50;99.90;;;;;;4974872;28;20055;-71
2021/12/09 05:49:26;;;;;;;23.10;12.93;;;3.60;99.90;;;;;;4974672;28;20065;-71
2021/12/09 05:51:53;;;;;;;29.23;19.33;;;3.70;99.90;;;;;;4974323;28;20058;-71
2021/12/09 05:54:19;;;;;;;23.20;13.25;;;3.70;99.90;;;;;;4960739;28;20047;-71
2021/12/09 05:56:44;;;;;;;21.33;12.20;;;3.80;99.90;;;;;;4972905;28;20038;-71
2021/12/09 05:59:10;;;;;;;23.10;13.00;;;3.80;99.90;;;;;;4967316;28;20023;-71
2021/12/09 06:01:39;;;;;;;25.75;15.48;;;3.90;99.90;;;;;;4962229;28;20073;-70
2021/12/09 06:04:06;;;;;;;20.88;12.10;;;3.90;99.90;;;;;;4959553;28;20543;-68
2021/12/09 06:06:32;;;;;;;21.83;12.30;;;3.90;99.90;;;;;;4957690;28;20042;-68
2021/12/09 06:08:58;;;;;;;22.67;14.05;;;3.90;99.90;;;;;;4974611;28;20046;-68
2021/12/09 06:11:26;;;;;;;26.42;16.88;;;4.00;99.90;;;;;;4973049;28;20477;-69
2021/12/09 06:13:52;;;;;;;22.90;11.27;;;4.00;99.90;;;;;;4966890;28;20551;-69
2021/12/09 06:16:20;;;;;;;27.15;14.73;;;4.00;99.90;;;;;;4956048;28;20097;-68
2021/12/09 06:18:46;;;;;;;30.92;17.65;;;4.00;99.90;;;;;;4955209;28;20034;-68
2021/12/09 06:21:12;;;;;;;29.67;16.13;;;4.20;99.90;;;;;;4955062;28;20031;-70
2021/12/09 06:23:38;;;;;;;24.95;15.38;;;4.10;99.90;;;;;;4969632;28;20378;-71
2021/12/09 06:26:06;;;;;;;20.90;11.35;;;4.00;99.90;;;;;;4972601;28;20034;-70
2021/12/09 06:28:33;;;;;;;19.40;10.98;;;4.00;99.90;;;;;;4973814;28;20043;-71
2021/12/09 06:30:58;;;;;;;23.73;14.27;;;3.90;99.90;;;;;;4973958;28;20509;-70
2021/12/09 06:33:24;;;;;;;24.67;12.65;;;3.90;99.90;;;;;;4972667;28;20118;-68
2021/12/09 06:35:50;;;;;;;26.48;14.77;;;3.90;99.90;;;;;;4971982;28;20023;-69
2021/12/09 06:38:17;;;;;;;21.20;10.85;;;3.90;99.90;;;;;;4974315;28;20015;-71
2021/12/09 06:40:45;;;;;;;22.13;11.38;;;4.00;99.90;;;;;;4973359;28;20034;-70
2021/12/09 06:43:12;;;;;;;32.60;19.70;;;4.00;99.90;;;;;;4958138;28;20030;-71
2021/12/09 06:45:39;;;;;;;25.27;14.23;;;4.00;99.90;;;;;;4970108;28;20029;-70
2021/12/09 06:48:05;;;;;;;22.52;12.88;;;4.10;99.90;;;;;;4973080;28;20037;-71
2021/12/09 06:50:31;;;;;;;74.80;39.22;;;4.10;99.90;;;;;;4974141;28;20027;-71
2021/12/09 06:52:57;;;;;;;35.40;21.52;;;4.10;99.90;;;;;;4973904;28;20452;-71
2021/12/09 06:55:23;;;;;;;27.73;15.80;;;4.20;99.90;;;;;;4972296;28;20481;-71
2021/12/09 06:57:49;;;;;;;32.85;19.95;;;4.20;99.90;;;;;;4956539;28;20024;-70
2021/12/09 07:00:19;;;;;;;33.17;20.23;;;4.30;99.90;;;;;;4954615;29;20081;-71
2021/12/09 07:02:45;;;;;;;29.65;17.55;;;4.50;99.90;;;;;;4954703;28;20020;-71
2021/12/09 07:05:12;;;;;;;26.65;14.40;;;4.70;99.90;;;;;;4966764;28;20488;-71
2021/12/09 07:07:38;;;;;;;21.50;13.02;;;4.80;99.90;;;;;;4972264;28;20114;-70
2021/12/09 07:10:07;;;;;;;26.10;16.65;;;4.90;99.90;;;;;;4955920;28;20393;-70
2021/12/09 07:12:35;;;;;;;29.27;16.05;;;5.00;99.90;;;;;;4971991;28;20023;-71
2021/12/09 07:15:02;;;;;;;28.88;14.77;;;5.20;99.90;;;;;;4962466;28;20031;-70
2021/12/09 07:17:28;;;;;;;23.70;12.98;;;5.30;99.90;;;;;;4955631;28;20044;-71
2021/12/09 07:19:54;;;;;;;28.85;17.13;;;5.30;99.90;;;;;;4954602;28;20031;-68
2021/12/09 07:22:20;;;;;;;34.00;19.35;;;5.40;99.90;;;;;;4954452;28;20437;-69
2021/12/09 07:24:45;;;;;;;39.28;21.73;;;5.40;99.90;;;;;;4963949;28;20039;-68
2021/12/09 07:27:11;;;;;;;40.13;20.73;;;5.50;99.90;;;;;;4975896;28;20070;-69
2021/12/09 07:29:37;;;;;;;28.70;15.30;;;5.50;99.90;;;;;;4977130;28;20023;-69
2021/12/09 07:32:04;;;;;;;29.38;14.55;;;5.60;99.90;;;;;;4977366;28;20030;-68
2021/12/09 07:34:30;;;;;;;29.77;16.98;;;5.60;99.90;;;;;;4977370;28;20038;-68
2021/12/09 07:37:01;;;;;;;33.58;18.98;;;5.70;99.90;;;;;;4975166;28;20059;-68
2021/12/09 07:39:27;;;;;;;32.25;15.60;;;5.70;99.90;;;;;;4970475;28;20038;-68
2021/12/09 07:41:56;;;;;;;25.85;15.27;;;5.60;99.90;;;;;;4975931;28;20027;-68
2021/12/09 07:44:23;;;;;;;37.78;21.10;;;5.60;99.90;;;;;;4964644;28;20027;-68
2021/12/09 07:46:51;;;;;;;40.80;24.50;;;5.60;99.90;;;;;;4957891;28;20023;-70
2021/12/09 07:49:17;;;;;;;41.15;27.73;;;5.60;99.90;;;;;;4958058;28;20035;-70
2021/12/09 07:51:42;;;;;;;44.30;25.13;;;5.60;99.90;;;;;;4959924;28;20142;-71
2021/12/09 07:54:08;;;;;;;40.05;20.73;;;5.60;99.90;;;;;;4964461;28;20047;-70
2021/12/09 07:56:34;;;;;;;27.17;16.63;;;5.60;99.90;;;;;;4957650;28;20378;-71
2021/12/09 07:59:00;;;;;;;24.52;15.23;;;5.50;99.90;;;;;;4957755;28;20414;-71
2021/12/09 08:01:26;;;;;;;35.03;18.83;;;5.60;99.90;;;;;;4956389;28;20126;-71
2021/12/09 08:03:52;;;;;;;29.30;16.17;;;5.60;99.90;;;;;;4964742;28;20157;-71
2021/12/09 08:06:18;;;;;;;31.73;17.13;;;5.50;99.90;;;;;;4976668;28;20105;-71
2021/12/09 08:08:43;;;;;;;34.50;17.23;;;5.60;99.90;;;;;;4961949;28;20019;-71
2021/12/09 08:11:10;;;;;;;37.97;16.55;;;5.60;99.90;;;;;;4965273;28;20027;-70
2021/12/09 08:13:36;;;;;;;32.88;14.60;;;5.60;99.90;;;;;;4975550;28;20054;-70
2021/12/09 08:16:02;;;;;;;38.45;22.40;;;5.70;99.90;;;;;;4976531;28;20022;-69
2021/12/09 08:18:31;;;;;;;47.55;28.10;;;5.70;99.90;;;;;;4974029;28;20082;-70
2021/12/09 08:21:00;;;;;;;56.88;31.65;;;5.70;99.90;;;;;;4973467;28;20589;-71
2021/12/09 08:23:26;;;;;;;47.45;29.95;;;5.80;99.90;;;;;;4974818;28;20031;-70
2021/12/09 08:25:54;;;;;;;42.63;21.33;;;5.80;99.90;;;;;;4975155;28;20031;-70
2021/12/09 08:28:20;;;;;;;44.85;22.80;;;5.80;99.90;;;;;;4974046;28;20027;-71
2021/12/09 08:30:50;;;;;;;56.22;35.10;;;5.90;99.90;;;;;;4974574;28;20131;-70
2021/12/09 08:33:17;;;;;;;82.28;46.20;;;6.00;99.90;;;;;;4958631;28;20028;-70
2021/12/09 08:35:42;;;;;;;80.97;47.03;;;6.00;99.90;;;;;;4956378;28;20035;-71
2021/12/09 08:38:09;;;;;;;80.93;49.20;;;6.10;99.90;;;;;;4957873;28;20082;-70
2021/12/09 08:40:35;;;;;;;59.53;37.60;;;6.10;99.90;;;;;;4968733;28;20074;-68
2021/12/09 08:43:02;;;;;;;54.10;33.58;;;6.20;99.90;;;;;;4976349;28;20026;-68
2021/12/09 08:45:29;;;;;;;47.70;26.42;;;6.30;99.90;;;;;;4976077;28;20027;-68
2021/12/09 08:47:54;;;;;;;39.35;21.95;;;6.30;99.90;;;;;;4969242;28;20016;-69
2021/12/09 08:50:23;;;;;;;31.13;14.75;;;6.40;99.90;;;;;;4957793;28;20447;-68
2021/12/09 08:52:51;;;;;;;30.05;15.18;;;6.40;99.90;;;;;;4965762;28;20137;-68
2021/12/09 08:55:18;;;;;;;31.38;18.45;;;6.50;99.90;;;;;;4973974;28;20082;-68
2021/12/09 08:57:46;;;;;;;34.47;19.25;;;6.50;99.90;;;;;;4975649;28;20612;-68
2021/12/09 09:00:16;;;;;;;32.55;17.98;;;6.60;99.90;;;;;;4974379;28;20031;-69
2021/12/09 09:02:44;;;;;;;26.73;15.25;;;6.60;99.90;;;;;;4975711;28;20482;-68
2021/12/09 09:05:13;;;;;;;25.80;13.73;;;6.70;99.90;;;;;;4975550;28;20022;-69
2021/12/09 09:07:43;;;;;;;32.03;16.65;;;6.70;99.90;;;;;;4970697;28;20161;-69
2021/12/09 09:10:12;;;;;;;23.80;12.05;;;6.80;99.90;;;;;;4968259;28;20374;-69
2021/12/09 09:12:39;;;;;;;33.00;17.85;;;6.80;99.90;;;;;;4956115;28;20373;-68
2021/12/09 09:15:11;;;;;;;43.38;20.55;;;6.80;99.90;;;;;;4956278;29;20042;-71
2021/12/09 09:17:37;;;;;;;42.38;20.10;;;6.80;99.90;;;;;;4957828;28;20031;-71
2021/12/09 09:20:06;;;;;;;18.85;8.80;;;6.90;99.90;;;;;;4967973;28;20062;-71
2021/12/09 09:22:32;;;;;;;26.95;15.98;;;6.90;99.90;;;;;;4975522;28;20039;-70
2021/12/09 09:24:58;;;;;;;33.72;17.83;;;6.90;99.90;;;;;;4973459;28;20544;-71
2021/12/09 09:27:24;;;;;;;22.80;12.82;;;6.90;99.90;;;;;;4974520;28;20058;-71
2021/12/09 09:29:49;;;;;;;22.98;11.23;;;7.00;99.90;;;;;;4954784;28;20015;-72
2021/12/09 09:32:15;;;;;;;14.48;7.43;;;7.10;99.90;;;;;;4951734;28;20084;-71
2021/12/09 09:34:42;;;;;;;46.17;24.30;;;7.20;99.90;;;;;;4955733;28;20078;-70
2021/12/09 09:37:08;;;;;;;48.80;23.70;;;7.30;99.90;;;;;;4955467;28;20422;-70
2021/12/09 09:39:35;;;;;;;38.33;18.05;;;7.50;99.90;;;;;;4956253;28;20039;-71
2021/12/09 09:44:46;;;;;;;16.27;7.55;;;7.70;99.90;;;;;;4975009;28;20035;-71
2021/12/09 09:47:13;;;;;;;15.95;8.60;;;7.70;99.90;;;;;;4974322;28;20046;-71
2021/12/09 09:49:42;;;;;;;14.65;7.45;;;7.70;99.90;;;;;;4972439;28;20102;-70
2021/12/09 09:52:38;;;;;;;19.10;9.10;;;7.80;99.90;;;;;;4973718;28;20043;-71
2021/12/09 09:55:08;;;;;;;14.48;6.97;;;7.80;99.90;;;;;;4971019;28;20051;-70
2021/12/09 09:57:35;;;;;;;13.75;6.68;;;7.90;99.90;;;;;;4956493;28;20039;-70
2021/12/09 10:00:03;;;;;;;17.20;7.22;;;7.90;99.90;;;;;;4952931;28;20035;-70
2021/12/09 10:02:35;;;;;;;17.33;9.40;;;8.00;99.80;;;;;;4952037;28;20078;-69
2021/12/09 10:05:04;;;;;;;17.25;6.90;;;7.90;99.90;;;;;;4952214;29;20083;-68
2021/12/09 10:07:33;;;;;;;19.05;9.80;;;7.90;99.90;;;;;;4962884;28;20026;-68
2021/12/09 10:09:58;;;;;;;25.83;9.45;;;7.90;99.90;;;;;;4953909;28;20031;-71
2021/12/09 10:12:24;;;;;;;16.85;7.03;;;7.90;99.90;;;;;;4953370;28;20036;-71
2021/12/09 10:14:52;;;;;;;16.95;8.93;;;8.00;99.90;;;;;;4969299;28;20066;-71
2021/12/09 10:17:29;;;;;;;24.08;11.52;;;8.00;99.90;;;;;;4969871;28;20027;-70
2021/12/09 10:19:59;;;;;;;26.15;12.75;;;7.90;99.90;;;;;;4969926;28;20117;-70
2021/12/09 10:22:31;;;;;;;23.48;11.60;;;7.90;99.90;;;;;;4964829;28;20481;-69
2021/12/09 10:24:59;;;;;;;23.05;11.77;;;7.90;99.90;;;;;;4951845;29;20043;-68
2021/12/09 10:27:29;;;;;;;27.88;12.80;;;7.80;99.90;;;;;;4952723;28;20031;-69
2021/12/09 10:30:13;;;;;;;19.45;10.43;;;7.80;99.90;;;;;;4956657;28;20037;-69
2021/12/09 10:32:41;;;;;;;21.00;10.32;;;7.80;99.90;;;;;;4973381;28;20035;-69
2021/12/09 10:35:13;;;;;;;28.90;14.82;;;7.70;99.90;;;;;;4972968;28;20069;-69
2021/12/09 10:37:41;;;;;;;25.75;11.60;;;7.70;99.90;;;;;;4971078;28;20142;-69
2021/12/09 10:40:10;;;;;;;32.25;15.18;;;7.70;99.90;;;;;;4969955;28;20085;-67
2021/12/09 10:42:51;;;;;;;22.33;10.65;;;7.70;99.90;;;;;;4969625;28;20019;-68
2021/12/09 10:45:22;;;;;;;20.00;9.88;;;7.80;99.90;;;;;;4953767;28;20101;-70
2021/12/09 10:48:06;;;;;;;26.60;13.13;;;7.80;99.90;;;;;;4953067;28;20031;-69
2021/12/09 10:50:53;;;;;;;30.88;17.73;;;7.80;99.90;;;;;;4955244;28;20038;-68
2021/12/09 10:55:55;;;;;;;43.00;23.27;;;7.90;99.90;;;;;;4963879;28;20073;-67
2021/12/09 10:58:26;;;;;;;28.27;16.15;;;7.90;99.90;;;;;;4971175;28;20113;-66
2021/12/09 11:00:55;;;;;;;46.00;26.83;;;7.90;99.90;;;;;;4954211;28;20446;-67
2021/12/09 11:03:35;;;;;;;51.35;23.63;;;7.90;99.90;;;;;;4954293;28;20030;-72
2021/12/09 11:06:03;;;;;;;47.78;24.88;;;7.90;99.90;;;;;;4954335;28;20035;-68
2021/12/09 11:08:30;;;;;;;69.65;38.08;;;7.90;99.90;;;;;;4968561;28;20023;-69
2021/12/09 11:10:58;;;;;;;84.95;47.35;;;7.90;99.90;;;;;;4958702;28;20054;-69
2021/12/09 11:13:24;;;;;;;91.80;51.90;;;8.00;99.90;;;;;;4973433;28;20031;-69
2021/12/09 11:15:54;;;;;;;72.43;40.75;;;8.00;99.90;;;;;;4960044;28;20077;-69
2021/12/09 11:18:26;;;;;;;80.32;44.55;;;8.10;99.90;;;;;;4954765;28;20028;-68
2021/12/09 11:20:52;;;;;;;67.82;38.13;;;8.10;99.90;;;;;;4970365;28;20039;-70
2021/12/09 11:23:34;;;;;;;58.80;35.70;;;8.20;99.90;;;;;;4972881;28;20157;-67
2021/12/09 11:26:30;;;;;;;56.03;34.13;;;8.30;99.90;;;;;;4973709;28;20035;-67
2021/12/09 11:29:07;;;;;;;50.30;28.92;;;8.40;99.90;;;;;;4973473;28;20109;-70
2021/12/09 11:32:06;;;;;;;36.75;22.58;;;8.50;99.90;;;;;;4958370;28;20386;-67
2021/12/09 11:34:40;;;;;;;77.38;48.17;;;8.50;99.90;;;;;;4920514;29;20051;-68
2021/12/09 11:37:20;;;;;;;65.85;41.03;;;8.50;99.90;;;;;;4933000;29;20394;-68
2021/12/09 11:39:47;;;;;;;65.43;41.70;;;8.60;99.90;;;;;;4932096;29;20052;-69
2021/12/09 11:42:24;;;;;;;62.97;41.47;;;8.60;99.90;;;;;;4932001;29;20028;-66
2021/12/09 11:44:50;;;;;;;54.45;35.70;;;8.60;99.90;;;;;;4930183;29;20043;-69
2021/12/09 11:47:16;;;;;;;57.90;38.35;;;8.50;99.90;;;;;;4911869;29;20622;-68
2021/12/09 11:49:43;;;;;;;66.57;41.75;;;8.60;99.90;;;;;;4930410;29;20046;-67
2021/12/09 11:52:12;;;;;;;63.55;39.65;;;8.60;99.90;;;;;;4932425;29;20111;-70
2021/12/09 11:54:39;;;;;;;40.30;23.17;;;8.50;99.90;;;;;;4932069;29;20123;-67
2021/12/09 11:57:26;;;;;;;34.85;21.08;;;8.50;99.90;;;;;;4932069;29;20028;-66
2021/12/09 12:11:56;;;;;;;42.58;25.70;;;8.40;99.90;;;;;;4947544;28;20043;-67
2021/12/09 12:14:40;;;;;;;45.80;28.05;;;8.40;99.90;;;;;;4976325;28;20126;-66
2021/12/09 12:17:17;;;;;;;46.55;25.63;;;8.40;99.90;;;;;;4976601;28;20400;-66
2021/12/09 12:19:54;;;;;;;45.25;28.30;;;8.30;99.90;;;;;;4974168;28;20110;-67
2021/12/09 12:34:23;;;;;;;25.58;13.90;;;7.90;99.90;;;;;;4951372;29;20031;-67
2021/12/09 12:39:56;;;;;;;26.15;13.82;;;7.80;99.90;;;;;;4942736;29;20385;-69
2021/12/09 12:42:45;;;;;;;34.40;17.40;;;7.80;99.90;;;;;;4943040;29;20119;-69
2021/12/09 12:46:04;;;;;;;29.60;17.33;;;7.80;99.90;;;;;;4934297;29;20047;-70
2021/12/09 12:48:39;;;;;;;30.27;18.52;;;7.80;99.90;;;;;;4951040;29;20046;-69
2021/12/09 12:51:05;;;;;;;32.58;18.60;;;7.80;99.90;;;;;;4954820;29;20078;-68
2021/12/09 12:53:40;;;;;;;25.88;13.90;;;7.80;99.90;;;;;;4954106;29;20135;-68
2021/12/09 12:56:11;;;;;;;35.83;19.45;;;7.90;99.90;;;;;;4954152;29;20145;-66
2021/12/09 12:58:37;;;;;;;52.97;31.02;;;7.80;99.90;;;;;;4953524;29;20381;-69
2021/12/09 13:01:18;;;;;;;64.45;35.75;;;7.80;99.90;;;;;;4967150;28;20046;-70
2021/12/09 13:03:51;;;;;;;51.20;28.73;;;7.80;99.90;;;;;;4994740;28;20353;-69
2021/12/09 13:06:50;;;;;;;39.40;20.77;;;7.80;99.90;;;;;;4994005;28;20466;-70
2021/12/09 13:09:35;;;;;;;33.85;16.60;;;7.80;99.90;;;;;;4995220;28;20069;-70
2021/12/09 13:12:06;;;;;;;36.65;18.27;;;7.80;99.90;;;;;;4975166;28;20065;-70
2021/12/09 13:14:37;;;;;;;33.17;16.08;;;7.80;99.90;;;;;;4975119;28;20047;-70
2021/12/09 13:22:08;;;;;;;24.92;14.32;;;7.70;99.90;;;;;;4974987;28;20027;-70
2021/12/09 13:24:44;;;;;;;31.92;18.27;;;7.70;99.90;;;;;;4974403;28;20039;-69
2021/12/09 13:47:09;;;;;;;69.97;46.20;;;7.80;99.90;;;;;;4935588;28;20040;-68